createdAt,value
2018-09-15T00:00:50.129Z,17.80
2018-09-15T00:03:20.501Z,17.80
2018-09-15T00:05:50.761Z,17.70
2018-09-15T00:08:21.114Z,17.60
2018-09-15T00:10:51.411Z,17.70
2018-09-15T00:13:22.710Z,17.70
2018-09-15T00:15:53.035Z,17.90
2018-09-15T00:18:23.475Z,18.10
2018-09-15T00:20:53.763Z,18.00
2018-09-15T00:23:24.524Z,18.00
2018-09-15T00:25:54.987Z,18.10
2018-09-15T00:28:25.372Z,17.80
2018-09-15T00:30:55.706Z,17.80
2018-09-15T00:33:26.043Z,17.80
2018-09-15T00:35:56.355Z,17.70
2018-09-15T00:38:26.731Z,17.60
2018-09-15T00:40:57.055Z,17.80
2018-09-15T00:43:27.385Z,17.90
2018-09-15T00:46:03.750Z,17.90
2018-09-15T00:48:40.041Z,17.80
2018-09-15T00:51:13.109Z,17.90
2018-09-15T00:53:58.490Z,17.70
2018-09-15T00:56:44.090Z,17.40
2018-09-15T00:59:21.519Z,17.50
2018-09-15T01:02:01.740Z,17.70
2018-09-15T01:04:34.295Z,17.40
2018-09-15T01:07:07.858Z,17.40
2018-09-15T01:09:46.526Z,17.30
2018-09-15T01:12:32.040Z,17.20
2018-09-15T01:15:04.873Z,17.20
2018-09-15T01:17:36.370Z,17.10
2018-09-15T01:20:07.633Z,17.40
2018-09-15T01:22:42.896Z,16.80
2018-09-15T01:25:29.434Z,17.20
2018-09-15T01:28:06.338Z,17.10
2018-09-15T01:30:42.171Z,16.90
2018-09-15T01:33:29.302Z,16.90
2018-09-15T01:36:05.551Z,16.80
2018-09-15T01:38:42.462Z,16.90
2018-09-15T01:41:14.651Z,16.90
2018-09-15T01:43:45.970Z,17.10
2018-09-15T01:46:18.774Z,17.20
2018-09-15T01:48:49.486Z,17.10
2018-09-15T01:51:22.112Z,17.10
2018-09-15T01:54:01.601Z,17.00
2018-09-15T01:56:33.315Z,17.00
2018-09-15T01:59:18.566Z,16.90
2018-09-15T02:01:51.237Z,16.80
2018-09-15T02:04:38.363Z,16.70
2018-09-15T02:07:14.666Z,16.70
2018-09-15T02:09:46.627Z,16.60
2018-09-15T02:12:18.283Z,16.70
2018-09-15T02:14:48.753Z,16.80
2018-09-15T02:17:19.273Z,16.70
2018-09-15T02:19:49.534Z,16.50
2018-09-15T02:22:19.892Z,16.40
2018-09-15T02:24:50.158Z,16.50
2018-09-15T02:27:20.512Z,16.40
2018-09-15T02:29:50.857Z,16.30
2018-09-15T02:32:21.179Z,16.50
2018-09-15T02:34:51.519Z,16.40
2018-09-15T02:37:21.792Z,16.50
2018-09-15T02:39:52.109Z,16.40
2018-09-15T02:42:22.439Z,16.50
2018-09-15T02:44:52.761Z,16.70
2018-09-15T02:47:23.067Z,16.40
2018-09-15T02:49:53.355Z,16.60
2018-09-15T02:52:23.869Z,16.50
2018-09-15T02:54:54.293Z,16.50
2018-09-15T02:57:24.522Z,16.70
2018-09-15T02:59:54.879Z,16.40
2018-09-15T03:02:25.527Z,16.30
2018-09-15T03:04:55.907Z,16.30
2018-09-15T03:07:26.228Z,16.50
2018-09-15T03:09:56.623Z,16.40
2018-09-15T03:12:27.047Z,16.40
2018-09-15T03:14:57.734Z,16.30
2018-09-15T03:17:28.176Z,16.80
2018-09-15T03:19:59.410Z,16.70
2018-09-15T03:22:29.885Z,16.40
2018-09-15T03:25:00.452Z,16.30
2018-09-15T03:27:30.898Z,16.20
2018-09-15T03:30:01.238Z,16.20
2018-09-15T03:32:31.611Z,16.20
2018-09-15T03:35:02.125Z,16.30
2018-09-15T03:37:32.499Z,16.10
2018-09-15T03:40:02.898Z,16.20
2018-09-15T03:42:33.221Z,16.10
2018-09-15T03:45:03.604Z,15.90
2018-09-15T03:47:33.981Z,15.90
2018-09-15T03:50:04.318Z,15.60
2018-09-15T03:52:34.901Z,15.80
2018-09-15T03:55:05.388Z,15.90
2018-09-15T03:57:35.714Z,15.90
2018-09-15T04:00:06.591Z,15.90
2018-09-15T04:02:36.943Z,15.70
2018-09-15T04:05:07.323Z,15.80
2018-09-15T04:07:37.655Z,15.90
2018-09-15T04:10:08.014Z,16.00
2018-09-15T04:12:38.498Z,15.80
2018-09-15T04:15:08.863Z,15.90
2018-09-15T04:17:39.347Z,15.70
2018-09-15T04:20:09.630Z,15.60
2018-09-15T04:22:39.950Z,15.70
2018-09-15T04:25:10.228Z,15.90
2018-09-15T04:27:40.566Z,15.90
2018-09-15T04:30:10.855Z,15.70
2018-09-15T04:32:41.162Z,15.80
2018-09-15T04:35:11.467Z,16.00
2018-09-15T04:37:41.759Z,16.00
2018-09-15T04:40:12.117Z,15.70
2018-09-15T04:42:42.456Z,15.70
2018-09-15T04:45:19.394Z,15.60
2018-09-15T04:47:49.846Z,15.60
2018-09-15T04:50:20.095Z,15.50
2018-09-15T04:52:50.485Z,15.50
2018-09-15T04:55:20.769Z,15.60
2018-09-15T04:57:51.884Z,15.40
2018-09-15T05:00:22.190Z,15.70
2018-09-15T05:02:52.575Z,15.60
2018-09-15T05:05:22.875Z,15.40
2018-09-15T05:07:53.652Z,15.50
2018-09-15T05:10:23.917Z,15.50
2018-09-15T05:12:54.363Z,15.50
2018-09-15T05:15:24.619Z,15.50
2018-09-15T05:17:55.010Z,15.50
2018-09-15T05:20:25.312Z,15.50
2018-09-15T05:22:55.607Z,15.50
2018-09-15T05:25:25.947Z,15.70
2018-09-15T05:27:56.474Z,15.80
2018-09-15T05:30:26.836Z,16.00
2018-09-15T05:32:57.202Z,16.00
2018-09-15T05:35:27.631Z,15.90
2018-09-15T05:37:57.968Z,16.00
2018-09-15T05:40:28.293Z,15.90
2018-09-15T05:42:58.588Z,16.00
2018-09-15T05:45:29.312Z,16.10
2018-09-15T05:47:59.654Z,16.10
2018-09-15T05:50:29.973Z,16.20
2018-09-15T05:53:00.407Z,16.50
2018-09-15T05:55:30.748Z,16.40
2018-09-15T05:58:01.046Z,16.30
2018-09-15T06:00:31.378Z,16.20
2018-09-15T06:03:01.650Z,16.20
2018-09-15T06:05:31.927Z,16.50
2018-09-15T06:08:02.259Z,16.50
2018-09-15T06:10:32.943Z,16.50
2018-09-15T06:13:03.349Z,16.60
2018-09-15T06:15:33.694Z,17.00
2018-09-15T06:18:04.019Z,17.10
2018-09-15T06:20:34.350Z,17.10
2018-09-15T06:23:04.672Z,17.30
2018-09-15T06:25:34.970Z,17.50
2018-09-15T06:28:05.275Z,17.60
2018-09-15T06:30:35.610Z,17.70
2018-09-15T06:33:06.002Z,17.60
2018-09-15T06:35:36.398Z,17.40
2018-09-15T06:38:06.722Z,17.30
2018-09-15T06:40:37.069Z,17.50
2018-09-15T06:43:07.434Z,17.40
2018-09-15T06:45:37.775Z,17.20
2018-09-15T06:48:08.108Z,17.60
2018-09-15T06:50:38.418Z,17.70
2018-09-15T06:53:08.767Z,18.00
2018-09-15T06:55:39.069Z,17.80
2018-09-15T06:58:09.570Z,18.00
2018-09-15T07:00:40.111Z,18.30
2018-09-15T07:03:10.593Z,18.30
2018-09-15T07:05:40.950Z,18.40
2018-09-15T07:08:14.833Z,18.50
2018-09-15T07:10:45.296Z,18.80
2018-09-15T07:13:15.653Z,18.60
2018-09-15T07:15:46.019Z,19.00
2018-09-15T07:18:16.389Z,19.10
2018-09-15T07:20:46.918Z,19.40
2018-09-15T07:23:17.842Z,19.70
2018-09-15T07:25:48.286Z,19.90
2018-09-15T07:28:18.584Z,20.00
2018-09-15T07:30:48.934Z,19.80
2018-09-15T07:33:19.382Z,20.40
2018-09-15T07:35:50.272Z,20.60
2018-09-15T07:38:20.633Z,20.60
2018-09-15T07:40:51.054Z,21.00
2018-09-15T07:43:21.427Z,21.10
2018-09-15T07:45:51.781Z,21.20
2018-09-15T07:48:22.133Z,21.30
2018-09-15T07:50:52.543Z,21.30
2018-09-15T07:53:22.922Z,21.50
2018-09-15T07:55:53.556Z,21.90
2018-09-15T07:58:24.091Z,22.20
2018-09-15T08:00:54.527Z,22.20
2018-09-15T08:03:24.850Z,22.20
2018-09-15T08:05:55.225Z,22.10
2018-09-15T08:08:25.850Z,22.10
2018-09-15T08:10:56.543Z,22.40
2018-09-15T08:13:26.963Z,22.60
2018-09-15T08:15:57.702Z,22.90
2018-09-15T08:18:28.159Z,23.30
2018-09-15T08:20:58.446Z,23.30
2018-09-15T08:23:28.762Z,23.70
2018-09-15T08:26:00.695Z,24.00
2018-09-15T08:28:31.118Z,24.10
2018-09-15T08:31:01.413Z,24.20
2018-09-15T08:33:31.815Z,24.20
2018-09-15T08:36:02.083Z,23.90
2018-09-15T08:38:32.413Z,24.30
2018-09-15T08:41:02.845Z,24.50
2018-09-15T08:43:33.150Z,24.60
2018-09-15T08:46:03.422Z,24.50
2018-09-15T08:48:33.762Z,24.30
2018-09-15T08:51:04.091Z,24.90
2018-09-15T08:53:34.438Z,25.40
2018-09-15T08:56:04.777Z,25.50
2018-09-15T08:58:35.057Z,25.80
2018-09-15T09:01:05.403Z,26.20
2018-09-15T09:03:35.726Z,26.40
2018-09-15T09:06:06.006Z,26.30
2018-09-15T09:08:36.336Z,25.90
2018-09-15T09:11:06.846Z,25.00
2018-09-15T09:13:38.046Z,24.70
2018-09-15T09:16:08.462Z,24.40
2018-09-15T09:18:38.752Z,24.00
2018-09-15T09:21:09.029Z,24.00
2018-09-15T09:23:39.379Z,24.00
2018-09-15T09:26:16.000Z,24.70
2018-09-15T09:28:46.279Z,25.80
2018-09-15T09:31:16.604Z,26.80
2018-09-15T09:33:46.946Z,27.00
2018-09-15T09:36:17.266Z,27.10
2018-09-15T09:38:47.590Z,27.20
2018-09-15T09:41:18.423Z,25.90
2018-09-15T09:43:51.011Z,25.60
2018-09-15T09:46:21.302Z,26.10
2018-09-15T09:48:51.566Z,26.90
2018-09-15T09:51:21.935Z,27.70
2018-09-15T09:53:52.318Z,27.80
2018-09-15T09:56:22.662Z,28.10
2018-09-15T09:58:53.026Z,27.80
2018-09-15T10:01:28.518Z,27.90
2018-09-15T10:04:00.024Z,28.60
2018-09-15T10:06:30.410Z,29.80
2018-09-15T10:09:00.897Z,30.60
2018-09-15T10:11:31.217Z,29.60
2018-09-15T10:14:03.775Z,28.10
2018-09-15T10:16:34.528Z,27.40
2018-09-15T10:19:04.874Z,27.80
2018-09-15T10:21:35.245Z,28.50
2018-09-15T10:24:05.608Z,29.60
2018-09-15T10:26:36.466Z,29.50
2018-09-15T10:29:07.137Z,29.20
2018-09-15T10:31:37.482Z,28.50
2018-09-15T10:34:07.834Z,29.10
2018-09-15T10:36:38.307Z,29.90
2018-09-15T10:39:10.278Z,30.90
2018-09-15T10:41:40.766Z,31.30
2018-09-15T10:44:11.159Z,31.30
2018-09-15T10:46:41.639Z,29.70
2018-09-15T10:49:13.822Z,28.50
2018-09-15T10:51:45.063Z,27.30
2018-09-15T10:54:15.405Z,27.20
2018-09-15T10:56:46.074Z,27.00
2018-09-15T10:59:16.465Z,27.40
2018-09-15T11:01:46.910Z,27.00
2018-09-15T11:04:17.363Z,26.30
2018-09-15T11:06:47.880Z,26.70
2018-09-15T11:09:19.818Z,27.70
2018-09-15T11:11:50.299Z,27.00
2018-09-15T11:14:20.652Z,26.40
2018-09-15T11:16:51.303Z,25.90
2018-09-15T11:19:21.935Z,25.30
2018-09-15T11:21:52.471Z,25.20
2018-09-15T11:24:24.270Z,25.30
2018-09-15T11:26:55.212Z,26.70
2018-09-15T11:29:39.308Z,26.90
2018-09-15T11:32:10.342Z,28.00
2018-09-15T11:34:40.714Z,29.20
2018-09-15T11:37:11.564Z,30.10
2018-09-15T11:39:43.009Z,30.60
2018-09-15T11:42:14.681Z,31.30
2018-09-15T11:44:45.662Z,31.50
2018-09-15T11:47:16.099Z,32.60
2018-09-15T11:49:46.445Z,31.60
2018-09-15T11:52:17.856Z,30.10
2018-09-15T11:54:48.185Z,30.60
2018-09-15T11:57:18.572Z,31.50
2018-09-15T11:59:49.232Z,32.10
2018-09-15T12:02:23.557Z,33.20
2018-09-15T12:04:53.966Z,33.60
2018-09-15T12:07:24.618Z,34.60
2018-09-15T12:09:55.410Z,35.30
2018-09-15T12:12:25.881Z,35.00
2018-09-15T12:14:58.723Z,32.60
2018-09-15T12:17:29.906Z,31.50
2018-09-15T12:20:00.187Z,32.40
2018-09-15T12:22:30.511Z,33.90
2018-09-15T12:25:00.786Z,35.20
2018-09-15T12:27:31.467Z,34.30
2018-09-15T12:30:01.811Z,32.30
2018-09-15T12:32:32.897Z,30.80
2018-09-15T12:35:03.769Z,30.50
2018-09-15T12:37:34.084Z,32.60
2018-09-15T12:40:21.606Z,31.50
2018-09-15T12:42:54.238Z,33.80
2018-09-15T12:45:25.109Z,34.90
2018-09-15T12:47:58.703Z,35.80
2018-09-15T12:50:30.226Z,36.30
2018-09-15T12:53:00.791Z,36.60
2018-09-15T12:55:31.210Z,36.40
2018-09-15T12:58:01.562Z,36.10
2018-09-15T13:00:38.763Z,37.10
2018-09-15T13:03:10.108Z,36.70
2018-09-15T13:05:40.799Z,37.00
2018-09-15T13:08:11.301Z,37.10
2018-09-15T13:10:42.199Z,37.90
2018-09-15T13:13:12.795Z,38.30
2018-09-15T13:15:43.106Z,39.00
2018-09-15T13:18:13.525Z,38.70
2018-09-15T13:20:43.898Z,38.40
2018-09-15T13:23:14.230Z,38.50
2018-09-15T13:25:44.760Z,37.60
2018-09-15T13:28:16.034Z,36.70
2018-09-15T13:30:47.580Z,36.10
2018-09-15T13:33:20.600Z,36.00
2018-09-15T13:35:50.907Z,36.80
2018-09-15T13:38:21.260Z,37.70
2018-09-15T13:40:51.606Z,38.30
2018-09-15T13:43:22.647Z,38.30
2018-09-15T13:45:53.161Z,38.20
2018-09-15T13:48:24.017Z,38.40
2018-09-15T13:50:55.328Z,38.40
2018-09-15T13:53:26.915Z,38.00
2018-09-15T13:55:57.404Z,38.50
2018-09-15T13:58:27.754Z,38.90
2018-09-15T14:00:59.585Z,38.50
2018-09-15T14:03:29.984Z,38.90
2018-09-15T14:06:00.414Z,38.50
2018-09-15T14:08:30.796Z,39.00
2018-09-15T14:11:01.372Z,37.50
2018-09-15T14:13:31.844Z,37.50
2018-09-15T14:16:02.504Z,36.20
2018-09-15T14:18:32.906Z,37.10
2018-09-15T14:22:06.935Z,36.70
2018-09-15T14:24:37.381Z,37.00
2018-09-15T14:27:07.918Z,37.50
2018-09-15T14:29:38.257Z,37.60
2018-09-15T14:32:08.546Z,37.60
2018-09-15T14:34:38.977Z,37.40
2018-09-15T14:37:09.887Z,37.40
2018-09-15T14:39:40.330Z,37.50
2018-09-15T14:42:10.766Z,37.60
2018-09-15T14:44:41.234Z,37.60
2018-09-15T14:47:13.047Z,37.90
2018-09-15T14:49:43.411Z,37.00
2018-09-15T14:52:13.762Z,36.90
2018-09-15T14:54:44.083Z,36.70
2018-09-15T14:57:18.469Z,36.80
2018-09-15T14:59:48.850Z,37.00
2018-09-15T15:02:19.901Z,35.60
2018-09-15T15:04:50.200Z,35.70
2018-09-15T15:07:20.636Z,35.70
2018-09-15T15:09:51.063Z,35.40
2018-09-15T15:12:23.223Z,35.20
2018-09-15T15:14:55.933Z,34.40
2018-09-15T15:17:26.510Z,34.30
2018-09-15T15:19:57.912Z,33.40
2018-09-15T15:22:28.229Z,32.30
2018-09-15T15:24:58.565Z,31.90
2018-09-15T15:27:29.118Z,31.40
2018-09-15T15:29:59.454Z,30.90
2018-09-15T15:32:29.855Z,30.00
2018-09-15T15:35:00.880Z,29.70
2018-09-15T15:37:32.581Z,29.80
2018-09-15T15:40:03.470Z,29.90
2018-09-15T15:42:35.149Z,30.00
2018-09-15T15:45:08.623Z,29.70
2018-09-15T15:47:38.926Z,30.00
2018-09-15T15:50:10.028Z,30.10
2018-09-15T15:52:41.128Z,29.70
2018-09-15T15:55:19.020Z,29.30
2018-09-15T15:57:53.248Z,28.90
2018-09-15T16:00:33.506Z,28.60
2018-09-15T16:03:13.708Z,29.10
2018-09-15T16:05:46.781Z,29.30
2018-09-15T16:08:17.595Z,29.40
2018-09-15T16:10:53.783Z,29.40
2018-09-15T16:13:24.834Z,29.40
2018-09-15T16:15:56.162Z,29.90
2018-09-15T16:18:27.251Z,30.00
2018-09-15T16:20:57.612Z,30.00
2018-09-15T16:23:28.475Z,29.50
2018-09-15T16:25:58.751Z,29.50
2018-09-15T16:28:29.039Z,29.00
2018-09-15T16:30:59.387Z,28.60
2018-09-15T16:33:30.413Z,28.20
2018-09-15T16:36:00.734Z,28.00
2018-09-15T16:38:31.042Z,27.80
2018-09-15T16:41:01.330Z,27.60
2018-09-15T16:43:31.638Z,27.10
2018-09-15T16:46:04.958Z,26.70
2018-09-15T16:48:35.672Z,26.70
2018-09-15T16:51:06.033Z,26.60
2018-09-15T16:53:36.755Z,26.10
2018-09-15T16:56:07.083Z,25.20
2018-09-15T16:58:39.932Z,24.50
2018-09-15T17:01:12.351Z,23.50
2018-09-15T17:03:45.128Z,22.70
2018-09-15T17:06:15.653Z,22.40
2018-09-15T17:08:46.381Z,22.10
2018-09-15T17:11:16.743Z,21.70
2018-09-15T17:13:47.225Z,21.30
2018-09-15T17:16:17.543Z,21.00
2018-09-15T17:18:48.159Z,20.50
2018-09-15T17:21:18.418Z,20.20
2018-09-15T17:23:49.841Z,20.10
2018-09-15T17:26:20.191Z,20.10
2018-09-15T17:28:50.704Z,19.70
2018-09-15T17:31:21.414Z,19.50
2018-09-15T17:33:51.967Z,19.20
2018-09-15T17:36:22.256Z,18.90
2018-09-15T17:38:52.513Z,18.80
2018-09-15T17:41:22.799Z,18.60
2018-09-15T17:43:53.085Z,18.70
2018-09-15T17:46:23.374Z,18.50
2018-09-15T17:48:53.614Z,18.40
2018-09-15T17:51:24.171Z,18.30
2018-09-15T17:53:54.948Z,18.10
2018-09-15T17:56:25.547Z,18.00
2018-09-15T17:58:55.843Z,17.90
2018-09-15T18:01:26.830Z,17.60
2018-09-15T18:03:57.462Z,17.50
2018-09-15T18:06:27.806Z,17.40
2018-09-15T18:08:58.076Z,17.50
2018-09-15T18:11:28.347Z,17.50
2018-09-15T18:13:59.218Z,17.30
2018-09-15T18:16:29.625Z,17.30
2018-09-15T18:19:00.051Z,17.20
2018-09-15T18:21:31.193Z,17.00
2018-09-15T18:24:01.845Z,17.00
2018-09-15T18:26:32.143Z,16.80
2018-09-15T18:29:02.473Z,16.60
2018-09-15T18:31:33.955Z,16.50
2018-09-15T18:34:04.306Z,16.30
2018-09-15T18:36:34.761Z,16.30
2018-09-15T18:39:07.836Z,16.30
2018-09-15T18:41:38.223Z,16.20
2018-09-15T18:44:08.584Z,16.00
2018-09-15T18:46:38.990Z,16.10
2018-09-15T18:49:09.367Z,16.20
2018-09-15T18:51:39.684Z,16.20
2018-09-15T18:54:10.203Z,16.00
2018-09-15T18:56:40.602Z,16.10
2018-09-15T18:59:10.982Z,16.10
2018-09-15T19:01:41.384Z,15.90
2018-09-15T19:04:11.665Z,16.00
2018-09-15T19:06:42.062Z,16.00
2018-09-15T19:09:12.935Z,15.80
2018-09-15T19:11:43.266Z,15.80
2018-09-15T19:14:28.837Z,15.60
2018-09-15T19:16:59.462Z,15.50
2018-09-15T19:19:30.397Z,15.40
2018-09-15T19:22:00.674Z,15.30
2018-09-15T19:24:32.195Z,15.10
2018-09-15T19:27:02.715Z,15.20
2018-09-15T19:29:32.895Z,14.90
2018-09-15T19:32:03.163Z,14.80
2018-09-15T19:34:33.387Z,14.90
2018-09-15T19:37:03.799Z,14.90
2018-09-15T19:39:34.084Z,14.70
2018-09-15T19:42:06.034Z,14.70
2018-09-15T19:44:37.536Z,14.60
2018-09-15T19:47:08.089Z,14.70
2018-09-15T19:49:38.356Z,14.70
2018-09-15T19:52:08.793Z,14.70
2018-09-15T19:54:39.348Z,14.70
2018-09-15T19:57:09.831Z,14.80
2018-09-15T19:59:40.411Z,14.70
2018-09-15T20:02:10.673Z,14.40
2018-09-15T20:04:41.490Z,14.30
2018-09-15T20:07:12.101Z,14.20
2018-09-15T20:09:42.377Z,14.20
2018-09-15T20:12:13.126Z,14.20
2018-09-15T20:14:43.700Z,14.10
2018-09-15T20:17:13.034Z,14.10
2018-09-15T20:19:43.122Z,13.70
2018-09-15T20:22:18.015Z,13.80
2018-09-15T20:24:48.742Z,14.00
2018-09-15T20:27:20.547Z,13.90
2018-09-15T20:29:51.378Z,13.90
2018-09-15T20:32:23.211Z,13.70
2018-09-15T20:34:59.354Z,13.60
2018-09-15T20:37:45.250Z,13.50
2018-09-15T20:40:15.673Z,13.40
2018-09-15T20:42:51.494Z,13.30
2018-09-15T20:45:24.636Z,13.30
2018-09-15T20:47:55.677Z,13.30
2018-09-15T20:50:26.559Z,13.30
2018-09-15T20:54:22.305Z,13.10
2018-09-15T20:56:55.074Z,12.90
2018-09-15T20:59:25.909Z,13.10
2018-09-15T21:01:56.592Z,13.00
2018-09-15T21:04:30.247Z,13.10
2018-09-15T21:07:01.960Z,13.20
2018-09-15T21:09:34.283Z,13.20
2018-09-15T21:12:06.958Z,13.10
2018-09-15T21:14:40.690Z,13.10
2018-09-15T21:20:18.329Z,12.90
2018-09-15T21:22:48.852Z,12.90
2018-09-15T21:25:20.330Z,12.80
2018-09-15T21:27:50.967Z,13.00
2018-09-15T21:30:22.392Z,13.00
2018-09-15T21:32:53.213Z,12.90
2018-09-15T21:35:25.055Z,12.80
2018-09-15T21:37:57.503Z,12.90
2018-09-15T21:40:28.125Z,13.00
2018-09-15T21:42:58.534Z,12.80
2018-09-15T21:45:28.963Z,12.60
2018-09-15T21:47:59.314Z,12.70
2018-09-15T21:50:30.454Z,12.70
2018-09-15T21:53:01.421Z,12.80
2018-09-15T21:55:32.590Z,12.70
2018-09-15T21:58:03.014Z,12.50
2018-09-15T22:00:33.423Z,12.60
2018-09-15T22:03:03.736Z,12.40
2018-09-15T22:05:34.078Z,12.40
2018-09-15T22:08:04.421Z,12.50
2018-09-15T22:10:34.835Z,12.40
2018-09-15T22:13:05.366Z,12.50
2018-09-15T22:15:35.780Z,12.00
2018-09-15T22:18:06.543Z,12.50
2018-09-15T22:20:36.830Z,12.50
2018-09-15T22:23:07.169Z,12.50
2018-09-15T22:25:37.488Z,12.50
2018-09-15T22:28:07.771Z,12.60
2018-09-15T22:30:38.659Z,12.50
2018-09-15T22:33:09.067Z,12.30
2018-09-15T22:35:39.454Z,12.20
2018-09-15T22:38:09.803Z,12.20
2018-09-15T22:40:40.510Z,12.20
2018-09-15T22:43:11.103Z,12.30
2018-09-15T22:45:41.578Z,12.40
2018-09-15T22:48:12.208Z,12.40
2018-09-15T22:50:42.527Z,12.50
2018-09-15T22:53:13.842Z,12.40
2018-09-15T22:55:44.186Z,12.30
2018-09-15T22:58:14.678Z,12.00
2018-09-15T23:00:45.455Z,12.20
2018-09-15T23:03:15.983Z,12.00
2018-09-15T23:05:46.305Z,12.00
2018-09-15T23:08:17.354Z,11.90
2018-09-15T23:10:47.694Z,12.00
2018-09-15T23:13:19.082Z,12.00
2018-09-15T23:15:49.617Z,11.80
2018-09-15T23:18:21.885Z,11.70
2018-09-15T23:24:07.715Z,11.80
2018-09-15T23:26:39.657Z,12.00
2018-09-15T23:29:11.671Z,12.10
2018-09-15T23:31:48.917Z,12.00
2018-09-15T23:34:19.429Z,11.70
2018-09-15T23:36:49.975Z,11.70
2018-09-15T23:39:20.421Z,11.80
2018-09-15T23:41:51.775Z,12.10
2018-09-15T23:44:22.975Z,12.00
2018-09-15T23:46:53.982Z,12.10
2018-09-15T23:49:24.561Z,12.10
2018-09-15T23:51:55.089Z,11.90
2018-09-15T23:54:25.663Z,12.10
2018-09-15T23:56:56.974Z,11.50
2018-09-15T23:59:33.940Z,12.00
